EXS15EP EGNM-LTFE
Flight info
| Callsign | EXS15EP |
|---|---|
| Flight time | N/A |
| Altitude | 37000 |
| Route | N0444F370 LAMIX L603 DOLAS DCT NAVPI DCT DODEN DCT NEGIX DCT DINKU DCT BESNI DCT LATLO DCT OBEDI DCT MAGAM DCT NOVLO DCT YULHU DCT VABEK UL603 OLOTA DCT RUGAS UN128 FSK DCT GIKAS DCT VEXOL UG802 IMR UN128 OKESA |
| Aircraft | B738/M-SDFGHIJ1RWXYZ/LB1 |
Departure
| Time | N/A |
|---|---|
| Airport | Leeds Bradford Airport (EGNM) |
Arrival
| Time | 2026-05-06 12:08 |
|---|---|
| Airport | Milas Bodrum International Airport (LTFE) |
| Time | Latitude | Longitude | Altitude | Speed | Heading |
|---|---|---|---|---|---|
| 2026-05-06 09:02 | 51.91318 | 4.67428 | 36882 ft | 445 kts | 122° |
| 2026-05-06 09:02 | 51.89745 | 4.71812 | 36860 ft | 445 kts | 122° |
| 2026-05-06 09:03 | 51.86645 | 4.80430 | 36862 ft | 446 kts | 122° |
| 2026-05-06 09:03 | 51.83514 | 4.89106 | 36857 ft | 447 kts | 122° |
| 2026-05-06 09:04 | 51.80386 | 4.97741 | 36869 ft | 448 kts | 122° |
| 2026-05-06 09:04 | 51.77284 | 5.06277 | 36857 ft | 449 kts | 122° |
| 2026-05-06 09:05 | 51.74112 | 5.14976 | 36857 ft | 450 kts | 122° |
| 2026-05-06 09:05 | 51.70938 | 5.23652 | 36851 ft | 450 kts | 122° |
| 2026-05-06 09:06 | 51.67756 | 5.32319 | 36845 ft | 449 kts | 122° |
| 2026-05-06 09:06 | 51.64571 | 5.40967 | 36854 ft | 448 kts | 122° |
| 2026-05-06 09:07 | 51.61376 | 5.49605 | 36853 ft | 450 kts | 122° |
| 2026-05-06 09:07 | 51.58322 | 5.57842 | 36842 ft | 450 kts | 123° |
| 2026-05-06 09:08 | 51.55277 | 5.66027 | 36867 ft | 449 kts | 123° |
| 2026-05-06 09:08 | 51.52056 | 5.74656 | 36855 ft | 448 kts | 123° |
| 2026-05-06 09:09 | 51.48847 | 5.83224 | 36845 ft | 447 kts | 123° |
| 2026-05-06 09:09 | 51.45656 | 5.91716 | 36824 ft | 446 kts | 123° |
| 2026-05-06 09:10 | 51.42490 | 6.00113 | 36827 ft | 445 kts | 123° |
| 2026-05-06 09:10 | 51.39314 | 6.08507 | 36837 ft | 446 kts | 123° |
| 2026-05-06 09:11 | 51.36101 | 6.16970 | 36816 ft | 449 kts | 123° |
| 2026-05-06 09:11 | 51.32845 | 6.25521 | 36804 ft | 449 kts | 124° |
| 2026-05-06 09:12 | 51.29596 | 6.34028 | 36800 ft | 448 kts | 124° |
| 2026-05-06 09:12 | 51.26374 | 6.42432 | 36800 ft | 447 kts | 124° |
| 2026-05-06 09:13 | 51.23118 | 6.50900 | 36809 ft | 447 kts | 124° |
| 2026-05-06 09:13 | 51.19855 | 6.59354 | 36809 ft | 448 kts | 124° |
| 2026-05-06 09:14 | 51.16582 | 6.67809 | 36787 ft | 448 kts | 124° |
| 2026-05-06 09:14 | 51.13323 | 6.76201 | 36793 ft | 447 kts | 124° |
| 2026-05-06 09:15 | 51.10047 | 6.84609 | 36794 ft | 446 kts | 124° |
| 2026-05-06 09:15 | 51.06788 | 6.92947 | 36795 ft | 446 kts | 124° |
| 2026-05-06 09:16 | 51.03606 | 7.01061 | 36793 ft | 446 kts | 124° |
| 2026-05-06 09:16 | 51.00347 | 7.09345 | 36772 ft | 446 kts | 124° |
| 2026-05-06 09:17 | 50.97051 | 7.17696 | 36784 ft | 447 kts | 125° |
| 2026-05-06 09:17 | 50.93742 | 7.26052 | 36768 ft | 447 kts | 125° |
| 2026-05-06 09:18 | 50.90428 | 7.34395 | 36776 ft | 447 kts | 125° |
| 2026-05-06 09:18 | 50.87132 | 7.42667 | 36780 ft | 448 kts | 125° |
| 2026-05-06 09:19 | 50.83800 | 7.51001 | 36768 ft | 448 kts | 125° |
| 2026-05-06 09:19 | 50.80469 | 7.59309 | 36771 ft | 448 kts | 125° |
| 2026-05-06 09:20 | 50.77130 | 7.67607 | 36771 ft | 448 kts | 126° |
| 2026-05-06 09:20 | 50.74323 | 7.74566 | 36774 ft | 448 kts | 126° |
| 2026-05-06 09:21 | 50.70992 | 7.82798 | 36777 ft | 448 kts | 126° |
| 2026-05-06 09:21 | 50.67632 | 7.91076 | 36777 ft | 448 kts | 126° |
| 2026-05-06 09:22 | 50.64264 | 7.99350 | 36767 ft | 448 kts | 126° |
| 2026-05-06 09:22 | 50.60943 | 8.07483 | 36756 ft | 449 kts | 126° |
| 2026-05-06 09:23 | 50.57278 | 8.15401 | 36766 ft | 446 kts | 132° |
| 2026-05-06 09:23 | 50.53345 | 8.22941 | 36757 ft | 446 kts | 133° |
| 2026-05-06 09:24 | 50.49436 | 8.30482 | 36752 ft | 446 kts | 132° |
| 2026-05-06 09:24 | 50.45556 | 8.38063 | 36743 ft | 446 kts | 132° |
| 2026-05-06 09:25 | 50.41673 | 8.45657 | 36773 ft | 446 kts | 132° |
| 2026-05-06 09:25 | 50.37761 | 8.53260 | 36762 ft | 446 kts | 134° |
| 2026-05-06 09:26 | 50.33650 | 8.60413 | 36755 ft | 444 kts | 137° |
| 2026-05-06 09:26 | 50.29356 | 8.67469 | 36755 ft | 444 kts | 137° |
| 2026-05-06 09:27 | 50.25133 | 8.74421 | 36777 ft | 444 kts | 137° |
| 2026-05-06 09:27 | 50.20894 | 8.81448 | 36774 ft | 445 kts | 137° |
| 2026-05-06 09:28 | 50.16658 | 8.88480 | 36763 ft | 445 kts | 137° |
| 2026-05-06 09:28 | 50.12415 | 8.95510 | 36781 ft | 445 kts | 137° |
| 2026-05-06 09:29 | 50.08242 | 9.02403 | 36761 ft | 446 kts | 137° |
| 2026-05-06 09:29 | 50.03983 | 9.09418 | 36778 ft | 446 kts | 137° |
| 2026-05-06 09:30 | 49.99718 | 9.16422 | 36766 ft | 446 kts | 137° |
| 2026-05-06 09:30 | 49.95453 | 9.23408 | 36776 ft | 446 kts | 138° |
| 2026-05-06 09:31 | 49.91177 | 9.30393 | 36778 ft | 445 kts | 138° |
| 2026-05-06 09:31 | 49.86906 | 9.37349 | 36771 ft | 445 kts | 138° |
| 2026-05-06 09:32 | 49.82633 | 9.44290 | 36784 ft | 445 kts | 138° |
| 2026-05-06 09:32 | 49.78430 | 9.51100 | 36774 ft | 444 kts | 138° |
| 2026-05-06 09:33 | 49.74163 | 9.57994 | 36771 ft | 443 kts | 138° |
| 2026-05-06 09:33 | 49.69899 | 9.64864 | 36788 ft | 443 kts | 139° |
| 2026-05-06 09:34 | 49.65625 | 9.71730 | 36787 ft | 443 kts | 139° |
| 2026-05-06 09:34 | 49.61381 | 9.78533 | 36790 ft | 442 kts | 139° |
| 2026-05-06 09:35 | 49.57111 | 9.85357 | 36795 ft | 442 kts | 139° |
| 2026-05-06 09:35 | 49.52848 | 9.92153 | 36764 ft | 441 kts | 139° |
| 2026-05-06 09:36 | 49.48584 | 9.98932 | 36794 ft | 441 kts | 139° |
| 2026-05-06 09:36 | 49.44377 | 10.05602 | 36810 ft | 442 kts | 139° |
| 2026-05-06 09:37 | 49.40086 | 10.12387 | 36812 ft | 443 kts | 139° |
| 2026-05-06 09:37 | 49.35778 | 10.19182 | 36809 ft | 445 kts | 139° |
| 2026-05-06 09:38 | 49.31453 | 10.25986 | 36811 ft | 447 kts | 139° |
| 2026-05-06 09:38 | 49.27106 | 10.32810 | 36802 ft | 448 kts | 140° |
| 2026-05-06 09:39 | 49.22745 | 10.39620 | 36837 ft | 448 kts | 140° |
| 2026-05-06 09:39 | 49.18286 | 10.46298 | 36833 ft | 449 kts | 141° |
| 2026-05-06 09:40 | 49.13788 | 10.52931 | 36841 ft | 450 kts | 141° |
| 2026-05-06 09:40 | 49.07054 | 10.62879 | 36841 ft | 449 kts | 141° |
| 2026-05-06 09:41 | 49.02610 | 10.69445 | 36830 ft | 447 kts | 142° |
| 2026-05-06 09:41 | 48.98151 | 10.76016 | 36837 ft | 445 kts | 142° |
| 2026-05-06 09:42 | 48.93706 | 10.82549 | 36828 ft | 443 kts | 142° |
| 2026-05-06 09:42 | 48.89274 | 10.89045 | 36831 ft | 441 kts | 142° |
| 2026-05-06 09:43 | 48.84861 | 10.95497 | 36825 ft | 440 kts | 142° |
| 2026-05-06 09:43 | 48.80538 | 11.01801 | 36826 ft | 437 kts | 142° |
| 2026-05-06 09:44 | 48.76151 | 11.08182 | 36816 ft | 436 kts | 142° |
| 2026-05-06 09:44 | 48.71775 | 11.14532 | 36826 ft | 435 kts | 142° |
| 2026-05-06 09:45 | 48.67401 | 11.20864 | 36830 ft | 435 kts | 142° |
| 2026-05-06 09:45 | 48.63078 | 11.27262 | 36820 ft | 436 kts | 139° |
| 2026-05-06 09:46 | 48.58986 | 11.34033 | 36800 ft | 437 kts | 138° |
| 2026-05-06 09:46 | 48.54932 | 11.40870 | 36832 ft | 438 kts | 138° |
| 2026-05-06 09:47 | 48.50830 | 11.47718 | 36820 ft | 442 kts | 138° |
| 2026-05-06 09:47 | 48.46686 | 11.54580 | 36815 ft | 442 kts | 139° |
| 2026-05-06 09:48 | 48.42590 | 11.61335 | 36824 ft | 440 kts | 139° |
| 2026-05-06 09:48 | 48.38464 | 11.68118 | 36828 ft | 438 kts | 139° |
| 2026-05-06 09:49 | 48.34353 | 11.74857 | 36825 ft | 436 kts | 139° |
| 2026-05-06 09:49 | 48.30254 | 11.81559 | 36828 ft | 435 kts | 139° |
| 2026-05-06 09:50 | 48.26163 | 11.88231 | 36830 ft | 434 kts | 139° |
| 2026-05-06 09:50 | 48.22071 | 11.94889 | 36823 ft | 434 kts | 139° |
| 2026-05-06 09:51 | 48.18041 | 12.01429 | 36823 ft | 434 kts | 139° |
| 2026-05-06 09:51 | 48.13935 | 12.08076 | 36803 ft | 435 kts | 139° |
| 2026-05-06 09:52 | 48.09811 | 12.14735 | 36806 ft | 437 kts | 139° |
| 2026-05-06 09:52 | 48.05691 | 12.21370 | 36810 ft | 439 kts | 139° |
| 2026-05-06 09:53 | 48.01518 | 12.28073 | 36798 ft | 442 kts | 139° |
| 2026-05-06 09:53 | 47.97326 | 12.34792 | 36772 ft | 444 kts | 139° |
| 2026-05-06 09:54 | 47.93101 | 12.41546 | 36793 ft | 446 kts | 139° |
| 2026-05-06 09:54 | 47.88934 | 12.48192 | 36786 ft | 447 kts | 139° |
| 2026-05-06 09:55 | 47.84676 | 12.54964 | 36783 ft | 448 kts | 139° |
| 2026-05-06 09:55 | 47.80436 | 12.61691 | 36781 ft | 448 kts | 139° |
| 2026-05-06 09:56 | 47.76140 | 12.68491 | 36784 ft | 448 kts | 139° |
| 2026-05-06 09:56 | 47.71902 | 12.75184 | 36778 ft | 446 kts | 140° |
| 2026-05-06 09:57 | 47.67652 | 12.81862 | 36784 ft | 442 kts | 140° |
| 2026-05-06 09:57 | 47.63352 | 12.88267 | 36812 ft | 437 kts | 142° |
| 2026-05-06 09:58 | 47.59016 | 12.94610 | 36786 ft | 438 kts | 142° |
| 2026-05-06 09:58 | 47.54803 | 13.00790 | 36788 ft | 438 kts | 142° |
| 2026-05-06 09:59 | 47.50487 | 13.07138 | 36795 ft | 436 kts | 142° |
| 2026-05-06 09:59 | 47.46165 | 13.13479 | 36782 ft | 440 kts | 142° |
| 2026-05-06 10:00 | 47.41810 | 13.19853 | 36791 ft | 441 kts | 143° |
| 2026-05-06 10:00 | 47.37564 | 13.26057 | 36815 ft | 444 kts | 143° |
| 2026-05-06 10:01 | 47.33160 | 13.32476 | 36811 ft | 446 kts | 142° |
| 2026-05-06 10:01 | 47.29065 | 13.39467 | 36792 ft | 453 kts | 136° |
| 2026-05-06 10:02 | 47.25149 | 13.46760 | 36831 ft | 455 kts | 135° |
| 2026-05-06 10:02 | 47.21204 | 13.54066 | 36846 ft | 458 kts | 136° |
| 2026-05-06 10:03 | 47.17180 | 13.61402 | 36870 ft | 464 kts | 136° |
| 2026-05-06 10:03 | 47.13141 | 13.68721 | 36815 ft | 454 kts | 136° |
| 2026-05-06 10:04 | 47.09171 | 13.75884 | 36874 ft | 454 kts | 136° |
| 2026-05-06 10:04 | 47.05149 | 13.83100 | 36904 ft | 460 kts | 136° |
| 2026-05-06 10:05 | 47.01763 | 13.89166 | 36896 ft | 464 kts | 136° |
| 2026-05-06 10:05 | 46.97007 | 13.97681 | 36893 ft | 465 kts | 136° |
| 2026-05-06 10:06 | 46.92985 | 14.04862 | 36849 ft | 464 kts | 135° |
| 2026-05-06 10:06 | 46.89560 | 14.10962 | 36910 ft | 462 kts | 135° |
| 2026-05-06 10:07 | 46.85471 | 14.18222 | 36919 ft | 463 kts | 135° |
| 2026-05-06 10:07 | 46.81377 | 14.25472 | 36928 ft | 462 kts | 135° |
| 2026-05-06 10:08 | 46.77286 | 14.32697 | 36925 ft | 462 kts | 135° |
| 2026-05-06 10:08 | 46.73224 | 14.39853 | 36925 ft | 461 kts | 135° |
| 2026-05-06 10:09 | 46.69124 | 14.47056 | 36940 ft | 462 kts | 135° |
| 2026-05-06 10:09 | 46.65015 | 14.54256 | 36940 ft | 463 kts | 135° |
| 2026-05-06 10:10 | 46.60879 | 14.61482 | 36939 ft | 465 kts | 135° |
| 2026-05-06 10:10 | 46.56734 | 14.68710 | 36912 ft | 465 kts | 135° |
| 2026-05-06 10:11 | 46.52591 | 14.75915 | 36938 ft | 464 kts | 135° |
| 2026-05-06 10:11 | 46.48452 | 14.83094 | 36928 ft | 461 kts | 134° |
| 2026-05-06 10:12 | 46.44337 | 14.90212 | 36947 ft | 460 kts | 134° |
| 2026-05-06 10:12 | 46.40227 | 14.97303 | 36941 ft | 459 kts | 135° |
| 2026-05-06 10:13 | 46.36215 | 15.04206 | 36958 ft | 458 kts | 134° |
| 2026-05-06 10:13 | 46.32102 | 15.11265 | 36939 ft | 458 kts | 134° |
| 2026-05-06 10:14 | 46.27988 | 15.18308 | 36939 ft | 458 kts | 134° |
| 2026-05-06 10:14 | 46.23878 | 15.25328 | 36938 ft | 458 kts | 134° |
| 2026-05-06 10:15 | 46.19760 | 15.32342 | 36909 ft | 457 kts | 134° |
| 2026-05-06 10:15 | 46.15660 | 15.39311 | 36938 ft | 455 kts | 134° |
| 2026-05-06 10:16 | 46.11569 | 15.46244 | 36936 ft | 453 kts | 134° |
| 2026-05-06 10:16 | 46.07490 | 15.53140 | 36956 ft | 451 kts | 134° |
| 2026-05-06 10:17 | 46.03450 | 15.59954 | 36964 ft | 449 kts | 134° |
| 2026-05-06 10:17 | 45.99404 | 15.66765 | 36963 ft | 450 kts | 134° |
| 2026-05-06 10:18 | 45.95343 | 15.73611 | 36968 ft | 451 kts | 134° |
| 2026-05-06 10:18 | 45.91307 | 15.80528 | 36960 ft | 452 kts | 134° |
| 2026-05-06 10:19 | 45.87268 | 15.87457 | 36962 ft | 453 kts | 134° |
| 2026-05-06 10:19 | 45.83212 | 15.94388 | 36945 ft | 454 kts | 134° |
| 2026-05-06 10:20 | 45.79212 | 16.01197 | 36956 ft | 454 kts | 135° |
| 2026-05-06 10:20 | 45.75208 | 16.07994 | 36967 ft | 454 kts | 135° |
| 2026-05-06 10:21 | 45.71172 | 16.14827 | 36964 ft | 453 kts | 135° |
| 2026-05-06 10:21 | 45.67098 | 16.21708 | 36947 ft | 452 kts | 135° |
| 2026-05-06 10:22 | 45.63054 | 16.28523 | 36945 ft | 451 kts | 135° |
| 2026-05-06 10:22 | 45.59002 | 16.35333 | 36943 ft | 450 kts | 135° |
| 2026-05-06 10:23 | 45.54954 | 16.42120 | 36945 ft | 449 kts | 135° |
| 2026-05-06 10:23 | 45.50877 | 16.48939 | 36948 ft | 448 kts | 136° |
| 2026-05-06 10:24 | 45.46828 | 16.55695 | 36926 ft | 448 kts | 136° |
| 2026-05-06 10:24 | 45.42783 | 16.62428 | 36948 ft | 448 kts | 136° |
| 2026-05-06 10:25 | 45.38721 | 16.69173 | 36951 ft | 448 kts | 136° |
| 2026-05-06 10:25 | 45.34655 | 16.75908 | 36953 ft | 449 kts | 136° |
| 2026-05-06 10:26 | 45.30608 | 16.82598 | 36935 ft | 450 kts | 136° |
| 2026-05-06 10:26 | 45.26528 | 16.89328 | 36938 ft | 450 kts | 136° |
| 2026-05-06 10:27 | 45.22430 | 16.96075 | 36958 ft | 452 kts | 135° |
| 2026-05-06 10:27 | 45.18917 | 17.02146 | 36954 ft | 455 kts | 134° |
| 2026-05-06 10:28 | 45.14966 | 17.09162 | 36953 ft | 456 kts | 134° |
| 2026-05-06 10:28 | 45.10988 | 17.16193 | 36932 ft | 458 kts | 133° |
| 2026-05-06 10:29 | 45.06991 | 17.23201 | 36951 ft | 459 kts | 134° |
| 2026-05-06 10:29 | 45.03071 | 17.30039 | 36946 ft | 460 kts | 134° |
| 2026-05-06 10:30 | 44.99418 | 17.36393 | 36969 ft | 460 kts | 134° |
| 2026-05-06 10:30 | 44.95413 | 17.43343 | 36948 ft | 461 kts | 134° |
| 2026-05-06 10:31 | 44.91402 | 17.50290 | 36959 ft | 461 kts | 133° |
| 2026-05-06 10:31 | 44.87355 | 17.57281 | 36962 ft | 461 kts | 134° |
| 2026-05-06 10:32 | 44.83273 | 17.64315 | 36958 ft | 461 kts | 134° |
| 2026-05-06 10:32 | 44.79248 | 17.71234 | 36955 ft | 460 kts | 134° |
| 2026-05-06 10:33 | 44.75185 | 17.78201 | 36954 ft | 459 kts | 133° |
| 2026-05-06 10:33 | 44.71122 | 17.85151 | 36955 ft | 459 kts | 133° |
| 2026-05-06 10:34 | 44.67069 | 17.92067 | 36963 ft | 458 kts | 133° |
| 2026-05-06 10:34 | 44.63019 | 17.98962 | 36960 ft | 458 kts | 133° |
| 2026-05-06 10:35 | 44.59458 | 18.05009 | 36954 ft | 458 kts | 133° |
| 2026-05-06 10:35 | 44.55398 | 18.11888 | 36961 ft | 457 kts | 133° |
| 2026-05-06 10:36 | 44.51348 | 18.18736 | 36963 ft | 458 kts | 133° |
| 2026-05-06 10:36 | 44.47288 | 18.25583 | 36966 ft | 458 kts | 133° |
| 2026-05-06 10:37 | 44.43183 | 18.32490 | 36960 ft | 459 kts | 133° |
| 2026-05-06 10:37 | 44.39093 | 18.39355 | 36967 ft | 460 kts | 133° |
| 2026-05-06 10:38 | 44.35022 | 18.46175 | 36973 ft | 461 kts | 133° |
| 2026-05-06 10:38 | 44.30907 | 18.53051 | 36974 ft | 462 kts | 133° |
| 2026-05-06 10:39 | 44.26767 | 18.59928 | 36961 ft | 463 kts | 134° |
| 2026-05-06 10:39 | 44.22610 | 18.66795 | 36974 ft | 463 kts | 134° |
| 2026-05-06 10:40 | 44.18458 | 18.73641 | 36973 ft | 462 kts | 133° |
| 2026-05-06 10:40 | 44.14240 | 18.80584 | 36971 ft | 462 kts | 134° |
| 2026-05-06 10:41 | 44.10085 | 18.87407 | 36965 ft | 462 kts | 133° |
| 2026-05-06 10:41 | 44.05933 | 18.94212 | 36974 ft | 461 kts | 133° |
| 2026-05-06 10:42 | 44.01888 | 19.00823 | 36981 ft | 461 kts | 133° |
| 2026-05-06 10:42 | 43.97742 | 19.07585 | 36980 ft | 460 kts | 134° |
| 2026-05-06 10:43 | 43.93592 | 19.14337 | 36968 ft | 458 kts | 133° |
| 2026-05-06 10:44 | 43.87400 | 19.24383 | 36972 ft | 458 kts | 133° |
| 2026-05-06 10:44 | 43.83258 | 19.31080 | 36981 ft | 460 kts | 133° |
| 2026-05-06 10:45 | 43.79078 | 19.37826 | 36986 ft | 463 kts | 134° |
| 2026-05-06 10:45 | 43.74866 | 19.44606 | 36978 ft | 466 kts | 133° |
| 2026-05-06 10:46 | 43.70625 | 19.51418 | 36994 ft | 468 kts | 133° |
| 2026-05-06 10:46 | 43.66395 | 19.58196 | 36981 ft | 468 kts | 133° |
| 2026-05-06 10:47 | 43.62131 | 19.65014 | 36988 ft | 469 kts | 134° |
| 2026-05-06 10:47 | 43.57875 | 19.71804 | 37001 ft | 467 kts | 133° |
| 2026-05-06 10:48 | 43.53622 | 19.78570 | 37001 ft | 466 kts | 134° |
| 2026-05-06 10:48 | 43.49371 | 19.85317 | 36999 ft | 466 kts | 134° |
| 2026-05-06 10:49 | 43.45126 | 19.92041 | 37007 ft | 465 kts | 134° |
| 2026-05-06 10:49 | 43.40878 | 19.98752 | 36977 ft | 465 kts | 133° |
| 2026-05-06 10:50 | 43.36699 | 20.05339 | 37005 ft | 464 kts | 134° |
| 2026-05-06 10:50 | 43.32477 | 20.11980 | 37010 ft | 464 kts | 134° |
| 2026-05-06 10:51 | 43.28228 | 20.18647 | 37010 ft | 464 kts | 134° |
| 2026-05-06 10:51 | 43.23976 | 20.25302 | 37019 ft | 463 kts | 133° |
| 2026-05-06 10:52 | 43.19721 | 20.31950 | 37009 ft | 464 kts | 133° |
| 2026-05-06 10:52 | 43.15456 | 20.38596 | 37024 ft | 465 kts | 133° |
| 2026-05-06 10:53 | 43.11175 | 20.45253 | 37015 ft | 466 kts | 133° |
| 2026-05-06 10:53 | 43.06889 | 20.51903 | 37028 ft | 466 kts | 133° |
| 2026-05-06 10:54 | 43.02590 | 20.58560 | 37030 ft | 468 kts | 133° |
| 2026-05-06 10:54 | 42.98199 | 20.65089 | 37039 ft | 468 kts | 137° |
| 2026-05-06 10:55 | 42.94292 | 20.70203 | 37027 ft | 469 kts | 139° |
| 2026-05-06 10:55 | 42.88750 | 20.77265 | 37039 ft | 469 kts | 139° |
| 2026-05-06 10:56 | 42.84010 | 20.83376 | 37041 ft | 469 kts | 138° |
| 2026-05-06 10:56 | 42.80060 | 20.88505 | 37060 ft | 468 kts | 138° |
| 2026-05-06 10:57 | 42.75355 | 20.94618 | 37060 ft | 467 kts | 138° |
| 2026-05-06 10:57 | 42.70773 | 21.00557 | 37073 ft | 466 kts | 138° |
| 2026-05-06 10:58 | 42.66071 | 21.06635 | 37074 ft | 466 kts | 138° |
| 2026-05-06 10:58 | 42.61363 | 21.12707 | 37069 ft | 466 kts | 138° |
| 2026-05-06 10:59 | 42.56659 | 21.18760 | 37072 ft | 466 kts | 138° |
| 2026-05-06 10:59 | 42.51946 | 21.24812 | 37073 ft | 467 kts | 138° |
| 2026-05-06 11:00 | 42.47217 | 21.30870 | 37066 ft | 468 kts | 138° |
| 2026-05-06 11:00 | 42.42477 | 21.36930 | 37058 ft | 469 kts | 138° |
| 2026-05-06 11:01 | 42.37725 | 21.42993 | 37055 ft | 470 kts | 138° |
| 2026-05-06 11:01 | 42.32964 | 21.49054 | 37053 ft | 470 kts | 138° |
| 2026-05-06 11:02 | 42.28199 | 21.55107 | 37054 ft | 471 kts | 138° |
| 2026-05-06 11:02 | 42.23425 | 21.61160 | 37042 ft | 471 kts | 138° |
| 2026-05-06 11:03 | 42.18707 | 21.67298 | 37044 ft | 471 kts | 137° |
| 2026-05-06 11:03 | 42.14088 | 21.73468 | 37054 ft | 470 kts | 136° |
| 2026-05-06 11:04 | 42.09436 | 21.79665 | 37047 ft | 470 kts | 137° |
| 2026-05-06 11:04 | 42.04773 | 21.85837 | 37050 ft | 470 kts | 137° |
| 2026-05-06 11:05 | 42.00105 | 21.91986 | 37048 ft | 470 kts | 137° |
| 2026-05-06 11:05 | 41.95443 | 21.98115 | 37058 ft | 470 kts | 137° |
| 2026-05-06 11:06 | 41.90849 | 22.04140 | 37043 ft | 471 kts | 137° |
| 2026-05-06 11:06 | 41.86159 | 22.10280 | 37053 ft | 471 kts | 137° |
| 2026-05-06 11:07 | 41.81470 | 22.16405 | 37039 ft | 471 kts | 137° |
| 2026-05-06 11:07 | 41.76773 | 22.22528 | 37057 ft | 471 kts | 137° |
| 2026-05-06 11:08 | 41.72068 | 22.28648 | 37050 ft | 472 kts | 137° |
| 2026-05-06 11:08 | 41.67351 | 22.34771 | 37053 ft | 472 kts | 137° |
| 2026-05-06 11:09 | 41.62631 | 22.40884 | 37054 ft | 473 kts | 137° |
| 2026-05-06 11:09 | 41.57901 | 22.46998 | 37062 ft | 473 kts | 137° |
| 2026-05-06 11:10 | 41.53167 | 22.53103 | 37053 ft | 473 kts | 137° |
| 2026-05-06 11:10 | 41.48424 | 22.59207 | 37054 ft | 474 kts | 137° |
| 2026-05-06 11:11 | 41.43678 | 22.65303 | 37055 ft | 474 kts | 137° |
| 2026-05-06 11:11 | 41.38955 | 22.71356 | 37055 ft | 474 kts | 137° |
| 2026-05-06 11:12 | 41.34194 | 22.77444 | 37063 ft | 475 kts | 137° |
| 2026-05-06 11:12 | 41.28969 | 22.82774 | 37060 ft | 474 kts | 149° |
| 2026-05-06 11:13 | 41.23394 | 22.87453 | 37055 ft | 474 kts | 149° |
| 2026-05-06 11:13 | 41.17842 | 22.92199 | 37058 ft | 475 kts | 148° |
| 2026-05-06 11:14 | 41.12315 | 22.97003 | 37048 ft | 475 kts | 148° |
| 2026-05-06 11:14 | 41.07033 | 23.01947 | 37048 ft | 475 kts | 142° |
| 2026-05-06 11:15 | 41.01922 | 23.07505 | 37041 ft | 476 kts | 141° |
| 2026-05-06 11:15 | 40.96854 | 23.13101 | 37049 ft | 476 kts | 141° |
| 2026-05-06 11:16 | 40.91742 | 23.18658 | 37048 ft | 475 kts | 141° |
| 2026-05-06 11:16 | 40.86609 | 23.24173 | 37051 ft | 476 kts | 142° |
| 2026-05-06 11:17 | 40.81464 | 23.29675 | 37052 ft | 476 kts | 142° |
| 2026-05-06 11:17 | 40.76320 | 23.35167 | 37047 ft | 476 kts | 142° |
| 2026-05-06 11:18 | 40.71176 | 23.40649 | 37055 ft | 476 kts | 142° |
| 2026-05-06 11:18 | 40.66023 | 23.46132 | 37062 ft | 476 kts | 142° |
| 2026-05-06 11:19 | 40.60861 | 23.51612 | 37080 ft | 477 kts | 142° |
| 2026-05-06 11:19 | 40.55686 | 23.57095 | 37070 ft | 478 kts | 142° |
| 2026-05-06 11:20 | 40.50536 | 23.62541 | 37069 ft | 479 kts | 142° |
| 2026-05-06 11:20 | 40.45341 | 23.68023 | 37076 ft | 479 kts | 142° |
| 2026-05-06 11:21 | 40.40198 | 23.73439 | 37067 ft | 480 kts | 142° |
| 2026-05-06 11:21 | 40.34979 | 23.78924 | 37080 ft | 481 kts | 142° |
| 2026-05-06 11:22 | 40.29755 | 23.84402 | 37079 ft | 481 kts | 142° |
| 2026-05-06 11:22 | 40.24538 | 23.89863 | 37078 ft | 481 kts | 142° |
| 2026-05-06 11:23 | 40.19306 | 23.95327 | 37082 ft | 481 kts | 142° |
| 2026-05-06 11:23 | 40.14290 | 24.00557 | 37079 ft | 482 kts | 142° |
| 2026-05-06 11:24 | 40.09463 | 24.05578 | 37082 ft | 482 kts | 142° |
| 2026-05-06 11:24 | 40.04231 | 24.11011 | 37081 ft | 482 kts | 142° |
| 2026-05-06 11:25 | 39.99072 | 24.16359 | 37084 ft | 483 kts | 142° |
| 2026-05-06 11:25 | 39.93816 | 24.21795 | 37086 ft | 483 kts | 142° |
| 2026-05-06 11:26 | 39.88564 | 24.27217 | 37081 ft | 483 kts | 142° |
| 2026-05-06 11:26 | 39.83295 | 24.32644 | 37084 ft | 483 kts | 142° |
| 2026-05-06 11:27 | 39.78016 | 24.38071 | 37082 ft | 484 kts | 142° |
| 2026-05-06 11:27 | 39.72738 | 24.43487 | 37079 ft | 484 kts | 142° |
| 2026-05-06 11:28 | 39.67414 | 24.48939 | 37085 ft | 485 kts | 142° |
| 2026-05-06 11:28 | 39.62147 | 24.54323 | 37086 ft | 485 kts | 142° |
| 2026-05-06 11:29 | 39.56835 | 24.59741 | 37088 ft | 485 kts | 142° |
| 2026-05-06 11:29 | 39.51518 | 24.65155 | 37089 ft | 486 kts | 142° |
| 2026-05-06 11:30 | 39.46551 | 24.71101 | 37083 ft | 486 kts | 133° |
| 2026-05-06 11:30 | 39.41971 | 24.77488 | 37083 ft | 486 kts | 132° |
| 2026-05-06 11:31 | 39.37381 | 24.83891 | 37087 ft | 486 kts | 133° |
| 2026-05-06 11:31 | 39.32747 | 24.90247 | 37089 ft | 486 kts | 133° |
| 2026-05-06 11:32 | 39.28074 | 24.96596 | 37089 ft | 486 kts | 133° |
| 2026-05-06 11:32 | 39.24018 | 25.02087 | 37104 ft | 486 kts | 133° |
| 2026-05-06 11:33 | 39.19344 | 25.08407 | 37102 ft | 486 kts | 133° |
| 2026-05-06 11:33 | 39.14669 | 25.14721 | 37084 ft | 486 kts | 133° |
| 2026-05-06 11:34 | 39.09984 | 25.21035 | 37090 ft | 486 kts | 133° |
| 2026-05-06 11:34 | 39.05312 | 25.27318 | 37095 ft | 487 kts | 134° |
| 2026-05-06 11:35 | 39.00621 | 25.33613 | 37113 ft | 487 kts | 133° |
| 2026-05-06 11:35 | 38.96048 | 25.39738 | 37102 ft | 488 kts | 133° |
| 2026-05-06 11:36 | 38.91343 | 25.46027 | 37095 ft | 488 kts | 133° |
| 2026-05-06 11:36 | 38.86631 | 25.52313 | 37085 ft | 489 kts | 134° |
| 2026-05-06 11:37 | 38.81899 | 25.58613 | 37090 ft | 489 kts | 134° |
| 2026-05-06 11:37 | 38.77205 | 25.64848 | 37107 ft | 489 kts | 134° |
| 2026-05-06 11:38 | 38.72471 | 25.71125 | 37103 ft | 490 kts | 134° |
| 2026-05-06 11:38 | 38.67720 | 25.77411 | 37099 ft | 491 kts | 134° |
| 2026-05-06 11:39 | 38.62959 | 25.83698 | 37095 ft | 492 kts | 134° |
| 2026-05-06 11:39 | 38.58185 | 25.89990 | 37094 ft | 492 kts | 134° |
| 2026-05-06 11:40 | 38.53408 | 25.96273 | 37096 ft | 493 kts | 134° |
| 2026-05-06 11:40 | 38.49200 | 26.01796 | 37086 ft | 494 kts | 134° |
| 2026-05-06 11:41 | 38.44446 | 26.08027 | 37079 ft | 494 kts | 134° |
| 2026-05-06 11:41 | 38.39637 | 26.14318 | 37075 ft | 494 kts | 134° |
| 2026-05-06 11:41 | 38.37338 | 26.17629 | 37055 ft | 493 kts | 122° |
| 2026-05-06 11:42 | 38.35710 | 26.21391 | 37062 ft | 487 kts | 109° |
| 2026-05-06 11:42 | 38.34709 | 26.25473 | 36696 ft | 485 kts | 96° |
| 2026-05-06 11:42 | 38.34393 | 26.29738 | 36400 ft | 475 kts | 86° |
| 2026-05-06 11:42 | 38.34283 | 26.33879 | 35996 ft | 469 kts | 86° |
| 2026-05-06 11:43 | 38.34175 | 26.38053 | 35589 ft | 466 kts | 86° |
| 2026-05-06 11:43 | 38.34055 | 26.42128 | 35207 ft | 462 kts | 86° |
| 2026-05-06 11:43 | 38.33918 | 26.46229 | 34816 ft | 459 kts | 86° |
| 2026-05-06 11:44 | 38.33665 | 26.52987 | 34167 ft | 455 kts | 86° |
| 2026-05-06 11:44 | 38.33456 | 26.58276 | 33613 ft | 451 kts | 86° |
| 2026-05-06 11:44 | 38.33348 | 26.60975 | 33365 ft | 449 kts | 86° |
| 2026-05-06 11:44 | 38.33140 | 26.66126 | 32819 ft | 445 kts | 86° |
| 2026-05-06 11:45 | 38.32978 | 26.70109 | 32428 ft | 441 kts | 86° |
| 2026-05-06 11:45 | 38.32820 | 26.73995 | 32058 ft | 438 kts | 86° |
| 2026-05-06 11:45 | 38.32662 | 26.77859 | 31667 ft | 436 kts | 86° |
| 2026-05-06 11:45 | 38.32555 | 26.80459 | 31410 ft | 434 kts | 86° |
| 2026-05-06 11:46 | 38.32397 | 26.84277 | 31052 ft | 431 kts | 86° |
| 2026-05-06 11:46 | 38.32240 | 26.88024 | 30706 ft | 428 kts | 87° |
| 2026-05-06 11:46 | 38.32081 | 26.91802 | 30353 ft | 426 kts | 87° |
| 2026-05-06 11:46 | 38.31793 | 26.95553 | 29924 ft | 430 kts | 99° |
| 2026-05-06 11:47 | 38.30621 | 26.99074 | 29527 ft | 435 kts | 122° |
| 2026-05-06 11:47 | 38.28717 | 27.01889 | 29150 ft | 434 kts | 139° |
| 2026-05-06 11:47 | 38.26191 | 27.03937 | 28771 ft | 429 kts | 157° |
| 2026-05-06 11:47 | 38.23488 | 27.05457 | 28421 ft | 424 kts | 159° |
| 2026-05-06 11:48 | 38.20777 | 27.06913 | 28033 ft | 421 kts | 159° |
| 2026-05-06 11:48 | 38.18085 | 27.08347 | 27660 ft | 418 kts | 159° |
| 2026-05-06 11:48 | 38.15414 | 27.09781 | 27302 ft | 415 kts | 159° |
| 2026-05-06 11:48 | 38.12767 | 27.11217 | 26939 ft | 412 kts | 158° |
| 2026-05-06 11:49 | 38.10138 | 27.12656 | 26584 ft | 410 kts | 158° |
| 2026-05-06 11:49 | 38.07530 | 27.14092 | 26222 ft | 408 kts | 158° |
| 2026-05-06 11:49 | 38.04937 | 27.15523 | 25869 ft | 405 kts | 158° |
| 2026-05-06 11:49 | 38.02360 | 27.16945 | 25517 ft | 403 kts | 158° |
| 2026-05-06 11:50 | 37.99800 | 27.18359 | 25179 ft | 400 kts | 158° |
| 2026-05-06 11:50 | 37.97255 | 27.19762 | 24823 ft | 398 kts | 158° |
| 2026-05-06 11:50 | 37.94723 | 27.21157 | 24487 ft | 396 kts | 158° |
| 2026-05-06 11:50 | 37.92200 | 27.22546 | 24142 ft | 394 kts | 158° |
| 2026-05-06 11:51 | 37.89691 | 27.23926 | 23791 ft | 393 kts | 158° |
| 2026-05-06 11:51 | 37.87188 | 27.25301 | 23399 ft | 391 kts | 158° |
| 2026-05-06 11:51 | 37.84693 | 27.26671 | 23013 ft | 389 kts | 158° |
| 2026-05-06 11:51 | 37.82222 | 27.28028 | 22645 ft | 386 kts | 158° |
| 2026-05-06 11:52 | 37.79765 | 27.29375 | 22289 ft | 383 kts | 158° |
| 2026-05-06 11:52 | 37.77326 | 27.30712 | 21953 ft | 381 kts | 158° |
| 2026-05-06 11:52 | 37.74905 | 27.32038 | 21606 ft | 378 kts | 158° |
| 2026-05-06 11:52 | 37.72500 | 27.33354 | 21274 ft | 376 kts | 158° |
| 2026-05-06 11:53 | 37.70111 | 27.34661 | 20940 ft | 373 kts | 158° |
| 2026-05-06 11:53 | 37.67732 | 27.35961 | 20592 ft | 370 kts | 158° |
| 2026-05-06 11:53 | 37.65376 | 27.37248 | 20272 ft | 368 kts | 158° |
| 2026-05-06 11:53 | 37.63033 | 27.38526 | 19943 ft | 366 kts | 158° |
| 2026-05-06 11:54 | 37.60717 | 27.39832 | 19612 ft | 364 kts | 156° |
| 2026-05-06 11:54 | 37.58454 | 27.41150 | 19294 ft | 362 kts | 156° |
| 2026-05-06 11:54 | 37.56174 | 27.42482 | 18964 ft | 360 kts | 156° |
| 2026-05-06 11:54 | 37.53901 | 27.43801 | 18668 ft | 358 kts | 156° |
| 2026-05-06 11:55 | 37.51655 | 27.45100 | 18463 ft | 353 kts | 156° |
| 2026-05-06 11:55 | 37.49512 | 27.46570 | 18112 ft | 351 kts | 139° |
| 2026-05-06 11:55 | 37.47774 | 27.48707 | 17775 ft | 348 kts | 133° |
| 2026-05-06 11:55 | 37.46109 | 27.50889 | 17489 ft | 344 kts | 133° |
| 2026-05-06 11:56 | 37.44461 | 27.53019 | 17147 ft | 343 kts | 133° |
| 2026-05-06 11:56 | 37.42789 | 27.55146 | 16815 ft | 341 kts | 134° |
| 2026-05-06 11:56 | 37.41117 | 27.57254 | 16499 ft | 339 kts | 134° |
| 2026-05-06 11:56 | 37.39471 | 27.59371 | 16188 ft | 336 kts | 128° |
| 2026-05-06 11:57 | 37.38344 | 27.61894 | 15839 ft | 330 kts | 106° |
| 2026-05-06 11:57 | 37.37670 | 27.64631 | 15539 ft | 327 kts | 103° |
| 2026-05-06 11:57 | 37.37040 | 27.67375 | 15215 ft | 326 kts | 103° |
| 2026-05-06 11:57 | 37.36415 | 27.70107 | 14895 ft | 324 kts | 103° |
| 2026-05-06 11:58 | 37.35787 | 27.72816 | 14588 ft | 322 kts | 103° |
| 2026-05-06 11:58 | 37.35157 | 27.75489 | 14207 ft | 317 kts | 103° |
| 2026-05-06 11:58 | 37.34529 | 27.78136 | 13705 ft | 316 kts | 103° |
| 2026-05-06 11:58 | 37.33900 | 27.80775 | 13190 ft | 314 kts | 103° |
| 2026-05-06 11:59 | 37.33274 | 27.83386 | 12710 ft | 311 kts | 103° |
| 2026-05-06 11:59 | 37.32653 | 27.85972 | 12257 ft | 307 kts | 103° |
| 2026-05-06 11:59 | 37.32038 | 27.88524 | 11831 ft | 303 kts | 103° |
| 2026-05-06 11:59 | 37.31432 | 27.91043 | 11369 ft | 300 kts | 103° |
| 2026-05-06 12:00 | 37.30829 | 27.93543 | 10906 ft | 298 kts | 103° |
| 2026-05-06 12:00 | 37.30233 | 27.96016 | 10487 ft | 295 kts | 103° |
| 2026-05-06 12:00 | 37.29640 | 27.98472 | 10070 ft | 292 kts | 103° |
| 2026-05-06 12:00 | 37.29078 | 28.00802 | 9657 ft | 289 kts | 103° |
| 2026-05-06 12:01 | 37.28497 | 28.03168 | 9166 ft | 287 kts | 106° |
| 2026-05-06 12:01 | 37.27438 | 28.05238 | 8670 ft | 293 kts | 138° |
| 2026-05-06 12:01 | 37.25626 | 28.06352 | 8269 ft | 292 kts | 168° |
| 2026-05-06 12:01 | 37.23623 | 28.06377 | 7833 ft | 289 kts | 194° |
| 2026-05-06 12:02 | 37.21842 | 28.05322 | 7390 ft | 283 kts | 221° |
| 2026-05-06 12:02 | 37.20659 | 28.03414 | 7036 ft | 275 kts | 249° |
| 2026-05-06 12:02 | 37.20010 | 28.01223 | 7015 ft | 262 kts | 254° |
| 2026-05-06 12:02 | 37.19459 | 27.99099 | 6934 ft | 252 kts | 255° |
| 2026-05-06 12:03 | 37.18926 | 27.97028 | 6832 ft | 247 kts | 255° |
| 2026-05-06 12:03 | 37.18485 | 27.94979 | 6627 ft | 242 kts | 268° |
| 2026-05-06 12:03 | 37.18802 | 27.92987 | 6401 ft | 227 kts | 295° |
| 2026-05-06 12:03 | 37.19311 | 27.91114 | 6042 ft | 226 kts | 290° |
| 2026-05-06 12:04 | 37.19739 | 27.89264 | 5661 ft | 217 kts | 289° |
| 2026-05-06 12:04 | 37.20157 | 27.87464 | 5131 ft | 214 kts | 289° |
| 2026-05-06 12:04 | 37.20576 | 27.85685 | 4534 ft | 212 kts | 289° |
| 2026-05-06 12:04 | 37.20993 | 27.83917 | 3950 ft | 210 kts | 289° |
| 2026-05-06 12:05 | 37.21402 | 27.82186 | 3456 ft | 204 kts | 289° |
| 2026-05-06 12:05 | 37.21795 | 27.80517 | 3064 ft | 195 kts | 290° |
| 2026-05-06 12:05 | 37.22172 | 27.78926 | 2683 ft | 185 kts | 289° |
| 2026-05-06 12:05 | 37.22529 | 27.77410 | 2275 ft | 177 kts | 289° |
| 2026-05-06 12:06 | 37.22873 | 27.75960 | 1913 ft | 167 kts | 290° |
| 2026-05-06 12:06 | 37.23196 | 27.74592 | 1499 ft | 159 kts | 291° |
| 2026-05-06 12:06 | 37.23505 | 27.73292 | 1163 ft | 151 kts | 289° |
| 2026-05-06 12:06 | 37.23800 | 27.72047 | 900 ft | 148 kts | 288° |
| 2026-05-06 12:07 | 37.24082 | 27.70862 | 634 ft | 141 kts | 285° |
| 2026-05-06 12:07 | 37.24347 | 27.69713 | 384 ft | 141 kts | 286° |
| 2026-05-06 12:07 | 37.24633 | 27.68543 | 185 ft | 143 kts | 285° |
| 2026-05-06 12:07 | 37.24915 | 27.67357 | 35 ft | 135 kts | 285° |
| 2026-05-06 12:08 | 37.25149 | 27.66367 | 29 ft | 97 kts | 286° |
| 2026-05-06 12:08 | 37.25250 | 27.65877 | 28 ft | 34 kts | 274° |
| 2026-05-06 12:08 | 37.25230 | 27.65659 | 28 ft | 19 kts | 259° |
| 2026-05-06 12:08 | 37.25162 | 27.65618 | 29 ft | 13 kts | 128° |
| 2026-05-06 12:09 | 37.25133 | 27.65721 | 29 ft | 12 kts | 106° |
| 2026-05-06 12:09 | 37.25108 | 27.65825 | 29 ft | 13 kts | 107° |
| 2026-05-06 12:09 | 37.25075 | 27.65956 | 30 ft | 19 kts | 107° |
| 2026-05-06 12:09 | 37.25035 | 27.66121 | 30 ft | 20 kts | 107° |
| 2026-05-06 12:10 | 37.24995 | 27.66286 | 30 ft | 19 kts | 106° |
| 2026-05-06 12:10 | 37.24957 | 27.66448 | 27 ft | 20 kts | 106° |
| 2026-05-06 12:10 | 37.24915 | 27.66625 | 27 ft | 22 kts | 106° |
| 2026-05-06 12:10 | 37.24873 | 27.66804 | 27 ft | 21 kts | 106° |
| 2026-05-06 12:11 | 37.24831 | 27.66976 | 28 ft | 20 kts | 107° |
| 2026-05-06 12:11 | 37.24791 | 27.67143 | 29 ft | 20 kts | 106° |
| 2026-05-06 12:11 | 37.24754 | 27.67306 | 30 ft | 19 kts | 106° |
| 2026-05-06 12:11 | 37.24716 | 27.67463 | 32 ft | 18 kts | 108° |
| 2026-05-06 12:12 | 37.24678 | 27.67614 | 31 ft | 18 kts | 108° |
| 2026-05-06 12:12 | 37.24599 | 27.67651 | 31 ft | 13 kts | 195° |
| 2026-05-06 12:12 | 37.24518 | 27.67617 | 30 ft | 10 kts | 206° |
| 2026-05-06 12:12 | 37.24474 | 27.67595 | 30 ft | 2 kts | 197° |
| 2026-05-06 12:13 | 37.24461 | 27.67590 | 30 ft | 2 kts | 197° |
| 2026-05-06 12:13 | 37.24448 | 27.67585 | 30 ft | 2 kts | 197° |
| 2026-05-06 12:13 | 37.24436 | 27.67581 | 30 ft | 1 kts | 197° |
| 2026-05-06 12:13 | 37.24435 | 27.67580 | 30 ft | 0 kts | 197° |